Time;durP1;ratioP1;P1;durP2;ratioP2;P2;SDS_P1;SDS_P2;PMS_P1;PMS_P2;Temp;Humidity;BMP_temperature;BMP_pressure;BME280_temperature;BME280_humidity;BME280_pressure;Samples;Min_cycle;Max_cycle;Signal;HPM_P1;HPM_P2
2023/03/23 00:01:56;;;;;;;6.82;1.10;;;13.20;64.60;;;;;;4998828;28;86697;-70
2023/03/23 00:04:24;;;;;;;3.67;1.20;;;13.10;65.80;;;;;;4993110;28;89206;-70
2023/03/23 00:06:50;;;;;;;4.15;1.10;;;13.00;66.10;;;;;;4978332;28;87817;-70
2023/03/23 00:09:17;;;;;;;4.10;1.30;;;12.90;67.00;;;;;;4980410;28;88212;-72
2023/03/23 00:11:43;;;;;;;3.15;1.00;;;12.80;67.40;;;;;;4980880;28;87510;-70
2023/03/23 00:14:13;;;;;;;3.53;1.20;;;12.80;67.40;;;;;;4978007;28;88239;-71
2023/03/23 00:16:40;;;;;;;;;;;12.70;67.70;;;;;;4986666;28;87832;-71
2023/03/23 00:19:08;;;;;;;4.40;1.20;;;12.60;68.10;;;;;;4993191;28;87349;-69
2023/03/23 00:21:38;;;;;;;4.05;1.30;;;12.50;68.30;;;;;;4986394;28;87019;-70
2023/03/23 00:24:04;;;;;;;5.30;1.30;;;12.50;68.50;;;;;;4966820;28;88266;-69
2023/03/23 00:26:33;;;;;;;5.50;1.17;;;12.50;68.40;;;;;;4985177;28;87822;-69
2023/03/23 00:29:06;;;;;;;3.72;1.10;;;12.40;69.00;;;;;;4983546;28;87490;-69
2023/03/23 00:31:34;;;;;;;4.68;1.55;;;12.30;69.40;;;;;;4977409;28;87647;-71
2023/03/23 00:34:03;;;;;;;3.88;1.33;;;12.30;69.40;;;;;;4979209;28;89052;-70
2023/03/23 00:36:31;;;;;;;4.82;1.27;;;12.30;69.70;;;;;;4999865;28;88717;-71
2023/03/23 00:38:59;;;;;;;3.80;1.20;;;12.20;69.60;;;;;;4994788;28;89657;-70
2023/03/23 00:41:26;;;;;;;5.63;1.60;;;12.10;69.90;;;;;;4984514;28;87143;-70
2023/03/23 00:43:53;;;;;;;3.78;1.30;;;12.00;70.40;;;;;;4994459;28;87326;-70
2023/03/23 00:46:20;;;;;;;4.20;1.60;;;11.90;70.50;;;;;;4977518;28;88597;-71
2023/03/23 00:48:46;;;;;;;5.40;1.83;;;11.90;70.80;;;;;;4979200;28;87180;-71
2023/03/23 00:51:12;;;;;;;4.07;1.42;;;11.80;71.40;;;;;;4970200;28;86398;-72
2023/03/23 00:53:41;;;;;;;4.35;1.15;;;11.80;71.60;;;;;;4980610;28;88139;-71
2023/03/23 00:56:08;;;;;;;3.53;1.40;;;11.70;71.60;;;;;;4980869;28;87772;-71
2023/03/23 00:58:34;;;;;;;4.75;1.38;;;11.70;71.00;;;;;;4975000;28;88262;-72
2023/03/23 01:01:00;;;;;;;4.15;1.38;;;11.70;71.50;;;;;;4988184;28;87027;-72
2023/03/23 01:03:28;;;;;;;4.95;1.48;;;11.70;71.50;;;;;;4999260;28;88420;-71
2023/03/23 01:05:54;;;;;;;4.47;1.10;;;11.60;71.60;;;;;;4999857;28;87780;-71
2023/03/23 01:08:21;;;;;;;7.70;1.50;;;11.60;71.30;;;;;;4999404;28;87377;-71
2023/03/23 01:10:48;;;;;;;5.00;1.27;;;11.70;71.30;;;;;;4981501;28;87373;-71
2023/03/23 01:13:15;;;;;;;3.47;1.35;;;11.70;71.50;;;;;;4978544;28;87677;-71
2023/03/23 01:15:41;;;;;;;5.72;1.48;;;11.70;72.10;;;;;;4975385;28;87878;-70
2023/03/23 01:18:08;;;;;;;4.10;1.02;;;11.70;71.60;;;;;;4980279;28;87739;-68
2023/03/23 01:20:36;;;;;;;3.85;1.20;;;11.70;71.60;;;;;;4982991;28;87069;-71
2023/03/23 01:23:02;;;;;;;7.18;1.50;;;11.70;71.80;;;;;;4981861;28;88636;-72
2023/03/23 01:25:30;;;;;;;6.25;1.42;;;11.70;71.90;;;;;;4999506;28;88789;-71
2023/03/23 01:27:57;;;;;;;8.77;1.42;;;11.60;72.30;;;;;;4989902;28;87484;-69
2023/03/23 01:30:24;;;;;;;5.40;1.60;;;11.60;72.30;;;;;;4989268;28;87407;-71
2023/03/23 01:32:50;;;;;;;3.20;1.42;;;11.50;72.70;;;;;;4971953;28;87416;-69
2023/03/23 01:35:16;;;;;;;4.53;1.35;;;11.50;72.60;;;;;;4977227;28;87697;-71
2023/03/23 01:37:42;;;;;;;3.30;1.02;;;11.50;72.60;;;;;;4977366;28;87607;-72
2023/03/23 01:40:09;;;;;;;3.22;1.08;;;11.40;72.30;;;;;;4980349;28;86633;-72
2023/03/23 01:42:37;;;;;;;4.50;1.30;;;11.40;72.60;;;;;;4978594;28;90056;-70
2023/03/23 01:45:23;;;;;;;3.35;1.20;;;11.40;72.60;;;;;;4976629;28;87872;-70
2023/03/23 01:47:55;;;;;;;2.90;1.17;;;11.40;72.70;;;;;;4969112;28;88724;-71
2023/03/23 01:50:23;;;;;;;3.22;1.00;;;11.40;72.50;;;;;;4978537;28;87367;-71
2023/03/23 01:52:52;;;;;;;5.20;0.95;;;11.40;72.90;;;;;;4978697;28;88099;-71
2023/03/23 01:55:18;;;;;;;4.30;1.38;;;11.40;73.20;;;;;;4980581;28;88128;-70
2023/03/23 01:57:45;;;;;;;4.80;0.98;;;11.30;73.40;;;;;;4998719;28;87130;-70
2023/03/23 02:00:15;;;;;;;3.22;1.23;;;11.20;73.60;;;;;;4986832;28;87403;-71
2023/03/23 02:02:43;;;;;;;4.38;1.27;;;11.20;74.30;;;;;;4978575;28;88472;-71
2023/03/23 02:05:20;;;;;;;7.55;1.35;;;11.20;73.70;;;;;;4977754;28;88350;-71
2023/03/23 02:07:47;;;;;;;5.10;1.77;;;11.30;73.00;;;;;;4971240;28;87357;-72
2023/03/23 02:10:13;;;;;;;5.65;1.50;;;11.40;73.20;;;;;;4976764;28;88350;-72
2023/03/23 02:12:39;;;;;;;7.32;1.33;;;11.40;73.70;;;;;;4970101;28;89161;-71
2023/03/23 02:15:05;;;;;;;4.90;1.30;;;11.40;73.90;;;;;;4978029;28;89317;-71
2023/03/23 02:17:36;;;;;;;3.33;1.67;;;11.40;73.40;;;;;;4975437;28;87682;-70
2023/03/23 02:20:06;;;;;;;5.40;1.65;;;11.40;72.60;;;;;;4977067;28;87385;-70
2023/03/23 02:22:57;;;;;;;6.47;1.50;;;11.50;73.10;;;;;;4978679;28;87594;-70
2023/03/23 02:25:29;;;;;;;6.18;1.30;;;11.40;73.20;;;;;;4975432;28;87982;-69
2023/03/23 02:28:09;;;;;;;5.95;1.60;;;11.50;72.80;;;;;;4993539;28;87513;-70
2023/03/23 02:30:41;;;;;;;6.70;1.50;;;11.50;73.20;;;;;;4981402;28;87885;-71
2023/03/23 02:33:40;;;;;;;6.05;1.77;;;11.40;73.70;;;;;;4977377;28;90145;-71
2023/03/23 02:36:14;;;;;;;5.22;1.77;;;11.40;73.80;;;;;;4975014;28;87296;-71
2023/03/23 02:38:55;;;;;;;5.10;1.70;;;11.40;73.80;;;;;;4977647;28;88246;-70
2023/03/23 02:41:26;;;;;;;4.55;1.27;;;11.40;73.60;;;;;;4985178;28;87219;-71
2023/03/23 02:43:52;;;;;;;6.43;2.40;;;11.40;74.10;;;;;;4990435;28;87583;-71
2023/03/23 02:46:20;;;;;;;4.00;1.38;;;11.40;73.80;;;;;;4977146;28;88914;-71
2023/03/23 02:48:50;;;;;;;4.85;1.63;;;11.40;74.20;;;;;;4977572;28;87469;-70
2023/03/23 02:51:19;;;;;;;5.00;1.73;;;11.40;74.40;;;;;;4977995;28;87352;-70
2023/03/23 02:53:46;;;;;;;5.25;1.77;;;11.40;74.50;;;;;;4993357;28;87549;-72
2023/03/23 02:56:14;;;;;;;3.60;1.38;;;11.40;74.70;;;;;;4993833;28;88045;-71
2023/03/23 02:58:40;;;;;;;4.47;1.30;;;11.30;74.10;;;;;;4974917;28;87453;-70
2023/03/23 03:01:38;;;;;;;7.05;1.25;;;11.30;74.00;;;;;;4977732;28;87553;-71
2023/03/23 03:04:16;;;;;;;3.40;1.13;;;11.30;73.70;;;;;;4968885;28;89225;-71
2023/03/23 03:07:17;;;;;;;3.83;1.40;;;11.30;73.20;;;;;;4965175;28;89154;-70
2023/03/23 03:09:50;;;;;;;4.53;1.48;;;11.30;73.10;;;;;;4968351;28;87659;-70
2023/03/23 03:12:46;;;;;;;5.07;1.52;;;11.40;73.00;;;;;;4976825;28;87769;-70
2023/03/23 03:15:30;;;;;;;3.28;1.38;;;11.40;72.70;;;;;;4963156;28;89054;-69
2023/03/23 03:18:07;;;;;;;4.45;1.38;;;11.50;73.30;;;;;;4967832;28;89565;-68
2023/03/23 03:20:37;;;;;;;4.85;1.88;;;11.50;73.60;;;;;;4975227;28;87574;-71
2023/03/23 03:23:07;;;;;;;4.90;2.33;;;11.40;74.10;;;;;;4977572;28;86629;-71
2023/03/23 03:25:34;;;;;;;5.28;2.38;;;11.30;75.30;;;;;;4977300;28;89261;-69
2023/03/23 03:28:01;;;;;;;6.22;2.80;;;11.30;76.00;;;;;;4982104;28;87881;-71
2023/03/23 03:30:31;;;;;;;6.15;2.42;;;11.20;76.90;;;;;;4981376;28;88614;-71
2023/03/23 03:33:00;;;;;;;6.88;2.47;;;11.20;77.20;;;;;;4973015;28;87429;-72
2023/03/23 03:35:26;;;;;;;5.22;2.40;;;11.20;77.40;;;;;;4968016;28;88937;-70
2023/03/23 03:37:52;;;;;;;10.90;3.15;;;11.20;77.60;;;;;;4978900;28;87919;-73
2023/03/23 03:40:21;;;;;;;5.82;2.63;;;11.20;77.50;;;;;;4992229;28;87032;-71
2023/03/23 03:42:46;;;;;;;4.95;2.53;;;11.20;77.50;;;;;;4995304;28;87060;-70
2023/03/23 03:45:15;;;;;;;5.38;2.67;;;11.20;77.80;;;;;;4989469;28;88046;-70
2023/03/23 03:47:41;;;;;;;4.85;2.15;;;11.20;77.60;;;;;;4977910;28;86988;-71
2023/03/23 03:50:07;;;;;;;8.88;3.05;;;11.20;78.00;;;;;;4980527;28;87400;-70
2023/03/23 03:52:33;;;;;;;5.57;2.58;;;11.20;78.10;;;;;;4978772;28;87420;-71
2023/03/23 03:54:59;;;;;;;6.80;2.72;;;11.10;77.90;;;;;;4979368;28;89014;-70
2023/03/23 03:57:25;;;;;;;4.75;2.45;;;11.10;78.40;;;;;;4980800;28;88958;-72
2023/03/23 03:59:51;;;;;;;8.18;2.83;;;11.10;78.60;;;;;;4980810;28;87527;-70
2023/03/23 04:02:19;;;;;;;5.50;2.85;;;11.10;78.80;;;;;;4980295;28;87364;-70
2023/03/23 04:04:47;;;;;;;5.55;2.53;;;11.10;79.00;;;;;;4973109;28;89203;-70
2023/03/23 04:07:13;;;;;;;5.88;2.75;;;11.10;78.80;;;;;;4980776;28;87611;-70
2023/03/23 04:09:40;;;;;;;8.55;2.75;;;11.10;78.50;;;;;;4980510;28;88128;-71
2023/03/23 04:12:06;;;;;;;7.25;2.90;;;11.20;78.80;;;;;;4980072;28;86314;-71
2023/03/23 04:14:32;;;;;;;5.15;2.70;;;11.20;78.70;;;;;;4993334;28;88065;-71
2023/03/23 04:16:58;;;;;;;6.38;2.85;;;11.10;78.80;;;;;;5000226;28;87500;-70
2023/03/23 04:19:25;;;;;;;8.55;3.17;;;11.10;79.40;;;;;;4982444;28;88421;-71
2023/03/23 04:21:51;;;;;;;7.43;2.78;;;11.00;79.90;;;;;;4970594;28;87681;-71
2023/03/23 04:24:21;;;;;;;7.13;2.60;;;11.00;80.10;;;;;;4978528;28;88363;-71
2023/03/23 04:26:47;;;;;;;3.72;1.83;;;11.00;80.00;;;;;;4972534;28;87425;-70
2023/03/23 04:29:12;;;;;;;6.22;1.95;;;11.00;78.90;;;;;;4978978;28;87790;-72
2023/03/23 04:31:40;;;;;;;5.18;1.80;;;11.00;77.80;;;;;;4990280;28;87555;-71
2023/03/23 04:34:06;;;;;;;7.03;2.20;;;11.00;77.90;;;;;;4972187;28;87673;-71
2023/03/23 04:36:33;;;;;;;4.90;1.95;;;11.10;78.00;;;;;;4984870;28;86741;-71
2023/03/23 04:39:00;;;;;;;5.40;2.33;;;11.10;77.60;;;;;;4979030;28;87504;-72
2023/03/23 04:41:26;;;;;;;4.20;2.03;;;11.20;77.50;;;;;;4993103;28;87453;-71
2023/03/23 04:43:53;;;;;;;5.00;2.13;;;11.30;72.90;;;;;;4964353;28;89844;-70
2023/03/23 04:46:21;;;;;;;4.65;1.98;;;11.50;71.30;;;;;;4969760;28;87284;-71
2023/03/23 04:48:47;;;;;;;4.95;2.42;;;11.80;68.40;;;;;;4960065;28;89250;-71
2023/03/23 04:51:13;;;;;;;7.30;2.00;;;12.20;66.50;;;;;;4973003;28;87575;-70
2023/03/23 04:53:40;;;;;;;9.13;2.50;;;12.40;66.10;;;;;;4989720;28;87505;-70
2023/03/23 04:56:06;;;;;;;5.90;2.45;;;12.60;64.70;;;;;;4967921;28;87373;-70
2023/03/23 04:58:35;;;;;;;5.47;2.25;;;12.70;64.20;;;;;;4982613;28;87342;-72
2023/03/23 05:01:01;;;;;;;5.65;2.28;;;12.90;62.90;;;;;;4980765;28;87134;-69
2023/03/23 05:03:27;;;;;;;6.55;2.20;;;13.10;62.20;;;;;;4984275;28;88093;-71
2023/03/23 05:05:53;;;;;;;4.25;1.92;;;13.20;60.80;;;;;;4982822;28;87844;-70
2023/03/23 05:08:20;;;;;;;7.78;2.10;;;13.30;61.30;;;;;;4975956;28;88253;-72
2023/03/23 05:10:57;;;;;;;4.90;2.33;;;13.40;61.00;;;;;;4997404;28;87370;-70
2023/03/23 05:13:23;;;;;;;4.65;1.80;;;13.40;60.60;;;;;;4983120;28;87874;-72
2023/03/23 05:15:49;;;;;;;8.80;1.92;;;13.50;60.60;;;;;;4974177;28;87333;-70
2023/03/23 05:18:15;;;;;;;5.28;1.77;;;13.50;60.80;;;;;;4975721;28;87509;-72
2023/03/23 05:20:41;;;;;;;4.97;1.85;;;13.50;60.90;;;;;;4972841;28;88014;-70
2023/03/23 05:23:08;;;;;;;5.65;2.05;;;13.50;60.80;;;;;;4973016;28;87649;-71
2023/03/23 05:25:39;;;;;;;5.25;1.90;;;13.50;60.90;;;;;;4971106;28;86925;-71
2023/03/23 05:28:11;;;;;;;4.55;2.00;;;13.40;61.70;;;;;;4979408;28;87377;-70
2023/03/23 05:30:38;;;;;;;4.05;1.83;;;13.40;62.00;;;;;;4969731;28;87515;-71
2023/03/23 05:33:05;;;;;;;6.03;2.17;;;13.30;62.80;;;;;;4976715;28;88090;-72
2023/03/23 05:35:31;;;;;;;6.90;2.35;;;13.20;62.50;;;;;;4978632;28;88280;-70
2023/03/23 05:37:57;;;;;;;5.35;2.05;;;13.30;61.50;;;;;;4972909;28;87562;-69
2023/03/23 05:40:25;;;;;;;6.05;1.95;;;13.40;60.40;;;;;;4973663;28;87090;-70
2023/03/23 05:42:51;;;;;;;4.68;1.92;;;13.60;60.20;;;;;;4977151;28;88965;-71
2023/03/23 05:45:18;;;;;;;5.07;2.22;;;13.70;58.20;;;;;;4971378;28;87342;-71
2023/03/23 05:47:44;;;;;;;5.68;2.03;;;13.80;59.60;;;;;;4978012;28;87551;-70
2023/03/23 05:50:10;;;;;;;7.53;2.53;;;13.70;61.20;;;;;;4981553;28;89154;-70
2023/03/23 05:52:37;;;;;;;6.07;2.13;;;13.60;62.10;;;;;;4965392;28;88663;-73
2023/03/23 05:55:03;;;;;;;6.13;2.40;;;13.50;63.00;;;;;;4960789;28;87870;-75
2023/03/23 05:57:30;;;;;;;6.13;2.45;;;13.40;63.20;;;;;;4962223;28;88407;-72
2023/03/23 05:59:57;;;;;;;11.05;2.72;;;13.20;64.20;;;;;;4962255;28;87819;-70
2023/03/23 06:02:24;;;;;;;18.80;2.60;;;13.10;64.30;;;;;;4964263;28;88917;-71
2023/03/23 06:04:50;;;;;;;7.00;2.63;;;13.00;65.10;;;;;;4969750;28;87687;-70
2023/03/23 06:07:16;;;;;;;5.30;2.22;;;13.00;64.30;;;;;;4974090;28;87300;-70
2023/03/23 06:09:42;;;;;;;9.95;2.33;;;13.00;64.60;;;;;;4961319;28;87970;-72
2023/03/23 06:12:09;;;;;;;4.70;2.10;;;13.00;64.20;;;;;;4973589;28;88464;-72
2023/03/23 06:14:36;;;;;;;8.85;2.40;;;13.00;64.70;;;;;;4975280;28;87655;-71
2023/03/23 06:17:02;;;;;;;6.95;2.60;;;13.00;64.50;;;;;;4963122;28;87487;-72
2023/03/23 06:19:28;;;;;;;6.63;2.33;;;13.10;65.00;;;;;;4975600;28;87351;-70
2023/03/23 06:21:56;;;;;;;9.10;2.55;;;13.10;64.40;;;;;;4964779;28;89136;-71
2023/03/23 06:24:22;;;;;;;6.70;2.58;;;13.10;63.90;;;;;;4964276;28;88877;-69
2023/03/23 06:26:49;;;;;;;18.73;2.72;;;13.10;64.30;;;;;;4960367;28;87902;-70
2023/03/23 06:29:15;;;;;;;11.13;2.60;;;13.10;64.70;;;;;;4966585;28;87516;-71
2023/03/23 06:31:44;;;;;;;7.00;2.10;;;13.20;63.10;;;;;;4972334;28;87822;-71
2023/03/23 06:34:11;;;;;;;6.97;1.80;;;13.30;61.90;;;;;;4965118;28;87780;-71
2023/03/23 06:36:38;;;;;;;8.00;2.15;;;13.50;61.90;;;;;;4963275;28;89474;-71
2023/03/23 06:39:04;;;;;;;9.05;2.03;;;13.60;60.90;;;;;;4964222;28;88392;-73
2023/03/23 06:41:31;;;;;;;4.85;1.63;;;13.70;59.50;;;;;;4964910;28;88305;-70
2023/03/23 06:43:57;;;;;;;5.10;1.70;;;13.90;58.20;;;;;;4974459;28;87812;-70
2023/03/23 06:46:23;;;;;;;4.38;1.60;;;14.00;58.70;;;;;;4977910;28;88296;-71
2023/03/23 06:48:50;;;;;;;3.95;1.60;;;14.10;58.80;;;;;;4981196;28;87466;-71
2023/03/23 06:51:17;;;;;;;7.07;2.20;;;14.20;59.40;;;;;;4978593;28;87355;-71
2023/03/23 06:53:43;;;;;;;4.00;1.50;;;14.20;58.90;;;;;;4986462;28;87499;-71
2023/03/23 06:56:08;;;;;;;5.20;2.08;;;14.20;59.20;;;;;;4971920;28;87088;-71
2023/03/23 06:58:35;;;;;;;8.38;1.80;;;14.20;58.70;;;;;;4977743;28;87421;-71
2023/03/23 07:01:00;;;;;;;6.53;2.08;;;14.20;59.30;;;;;;4977897;28;87472;-69
2023/03/23 07:03:27;;;;;;;7.75;2.15;;;14.20;58.60;;;;;;4979254;28;87334;-70
2023/03/23 07:05:54;;;;;;;5.57;2.00;;;14.30;59.30;;;;;;4998553;28;87365;-70
2023/03/23 07:08:20;;;;;;;6.97;1.98;;;14.40;57.60;;;;;;4989652;28;87826;-71
2023/03/23 07:10:46;;;;;;;5.22;1.70;;;14.50;58.00;;;;;;4973158;28;92676;-71
2023/03/23 07:13:12;;;;;;;7.93;2.33;;;14.60;58.00;;;;;;4974485;28;88742;-70
2023/03/23 07:15:39;;;;;;;6.15;2.15;;;14.70;57.40;;;;;;4976058;28;87222;-69
2023/03/23 07:18:05;;;;;;;4.97;1.90;;;14.90;56.20;;;;;;4983441;28;87682;-70
2023/03/23 07:20:31;;;;;;;8.20;1.88;;;15.00;57.70;;;;;;4975892;28;88140;-73
2023/03/23 07:22:56;;;;;;;4.57;1.73;;;15.10;59.10;;;;;;4977962;28;87991;-71
2023/03/23 07:25:22;;;;;;;7.28;1.80;;;15.20;58.80;;;;;;4976075;28;87604;-69
2023/03/23 07:27:48;;;;;;;5.50;1.33;;;15.30;59.60;;;;;;4979156;28;86309;-70
2023/03/23 07:30:14;;;;;;;4.85;1.40;;;15.40;59.10;;;;;;4976252;28;89062;-70
2023/03/23 07:32:41;;;;;;;6.80;1.45;;;15.60;59.10;;;;;;4973190;28;89086;-71
2023/03/23 07:35:08;;;;;;;4.68;1.30;;;15.80;59.10;;;;;;4971300;28;88458;-71
2023/03/23 07:37:35;;;;;;;2.80;1.15;;;16.00;59.30;;;;;;4972155;28;87211;-69
2023/03/23 07:40:14;;;;;;;6.03;1.50;;;16.10;59.90;;;;;;4959466;28;88851;-70
2023/03/23 07:42:41;;;;;;;6.47;3.67;;;16.20;59.80;;;;;;4978547;28;88661;-70
2023/03/23 07:45:07;;;;;;;4.65;1.00;;;16.30;59.90;;;;;;4978803;28;87110;-71
2023/03/23 07:47:33;;;;;;;3.28;1.38;;;16.50;61.40;;;;;;4977332;28;87531;-71
2023/03/23 07:49:58;;;;;;;6.15;1.60;;;16.60;59.20;;;;;;4973938;28;88417;-71
2023/03/23 07:52:24;;;;;;;3.88;1.60;;;16.70;59.50;;;;;;4970980;28;88382;-70
2023/03/23 07:54:50;;;;;;;6.53;1.70;;;16.80;58.60;;;;;;4975900;28;87154;-70
2023/03/23 07:57:15;;;;;;;3.65;1.25;;;16.90;59.20;;;;;;4979043;28;87544;-70
2023/03/23 07:59:41;;;;;;;5.20;1.65;;;17.10;58.40;;;;;;4972731;28;89383;-70
2023/03/23 08:02:09;;;;;;;7.18;1.58;;;17.20;58.10;;;;;;4974753;28;89417;-70
2023/03/23 08:04:37;;;;;;;4.80;1.50;;;17.30;58.10;;;;;;4976118;28;86940;-72
2023/03/23 08:07:04;;;;;;;3.22;1.10;;;17.40;56.20;;;;;;4979429;28;87307;-70
2023/03/23 08:09:30;;;;;;;3.85;0.90;;;17.40;56.30;;;;;;4979673;28;88808;-71
2023/03/23 08:11:56;;;;;;;2.17;0.70;;;17.50;57.60;;;;;;4976759;28;87927;-70
2023/03/23 08:14:22;;;;;;;3.17;0.70;;;17.50;56.00;;;;;;4973962;28;88816;-71
2023/03/23 08:16:48;;;;;;;5.75;1.00;;;17.60;57.90;;;;;;4969720;28;86682;-71
2023/03/23 08:19:14;;;;;;;3.08;0.43;;;17.60;59.30;;;;;;4974028;28;88136;-70
2023/03/23 08:21:40;;;;;;;4.88;0.85;;;17.70;59.40;;;;;;4973106;28;87872;-71
2023/03/23 08:24:06;;;;;;;2.30;0.57;;;18.00;55.00;;;;;;4973107;28;88287;-70
2023/03/23 08:26:32;;;;;;;4.53;0.73;;;18.10;54.20;;;;;;4982767;28;87630;-70
2023/03/23 08:28:57;;;;;;;3.33;0.82;;;18.40;56.00;;;;;;4985036;28;87558;-72
2023/03/23 08:31:24;;;;;;;7.00;1.20;;;18.80;53.80;;;;;;4973348;28;87508;-70
2023/03/23 08:33:50;;;;;;;9.07;1.10;;;19.20;52.10;;;;;;4979943;28;87503;-70
2023/03/23 08:36:16;;;;;;;4.68;0.73;;;19.50;54.30;;;;;;4975362;28;87515;-71
2023/03/23 08:38:43;;;;;;;5.18;0.70;;;19.80;52.00;;;;;;4968523;28;87810;-70
2023/03/23 08:41:09;;;;;;;3.95;0.75;;;20.00;51.80;;;;;;4980782;28;87292;-71
2023/03/23 08:43:35;;;;;;;6.43;1.30;;;20.10;50.30;;;;;;4977583;28;87309;-70
2023/03/23 08:46:06;;;;;;;3.80;1.65;;;20.20;47.90;;;;;;4980240;28;87514;-70
2023/03/23 08:48:33;;;;;;;4.10;1.83;;;20.20;47.70;;;;;;4980395;28;88186;-71
2023/03/23 08:51:00;;;;;;;7.60;1.63;;;20.30;47.30;;;;;;4980673;28;88723;-71
2023/03/23 08:53:30;;;;;;;4.50;1.40;;;20.40;50.20;;;;;;4979436;28;87408;-71
2023/03/23 08:55:56;;;;;;;4.50;1.48;;;20.30;50.10;;;;;;4975263;28;87588;-71
2023/03/23 08:58:22;;;;;;;7.72;1.35;;;20.10;51.20;;;;;;4980756;28;88193;-71
2023/03/23 09:00:48;;;;;;;10.07;1.30;;;20.20;50.20;;;;;;4979820;28;87741;-72
2023/03/23 09:03:15;;;;;;;7.97;1.73;;;20.20;49.90;;;;;;4984178;28;87431;-71
2023/03/23 09:05:45;;;;;;;6.35;1.92;;;20.50;49.60;;;;;;4994543;28;86669;-71
2023/03/23 09:08:12;;;;;;;5.32;2.60;;;20.60;48.70;;;;;;4988354;28;87327;-71
2023/03/23 09:10:38;;;;;;;8.50;2.17;;;20.70;48.60;;;;;;4989620;28;88302;-70
2023/03/23 09:13:06;;;;;;;6.32;1.75;;;20.50;47.30;;;;;;4987790;28;88463;-71
2023/03/23 09:15:32;;;;;;;7.70;1.40;;;20.50;50.10;;;;;;4986160;28;87737;-71
2023/03/23 09:17:58;;;;;;;4.00;1.33;;;20.40;51.00;;;;;;4979108;28;88160;-71
2023/03/23 09:20:26;;;;;;;3.58;1.00;;;20.30;50.00;;;;;;4980770;28;87542;-70
2023/03/23 09:22:56;;;;;;;8.15;1.00;;;20.20;51.60;;;;;;4987843;28;87513;-70
2023/03/23 09:25:25;;;;;;;9.95;1.38;;;20.10;50.20;;;;;;4990331;28;87401;-70
2023/03/23 09:27:53;;;;;;;9.32;1.70;;;20.00;51.40;;;;;;4980186;28;89034;-71
2023/03/23 09:30:20;;;;;;;6.20;1.60;;;20.00;52.00;;;;;;4997675;28;87775;-71
2023/03/23 09:32:47;;;;;;;5.72;1.40;;;20.00;50.50;;;;;;4983744;28;87673;-70
2023/03/23 09:35:16;;;;;;;4.28;1.10;;;20.00;50.60;;;;;;4978850;28;87404;-70
2023/03/23 09:37:43;;;;;;;8.07;2.30;;;20.10;51.10;;;;;;4979476;28;88457;-71
2023/03/23 09:40:19;;;;;;;4.78;1.92;;;20.20;50.30;;;;;;4981099;28;88993;-72
2023/03/23 09:43:11;;;;;;;30.13;11.95;;;20.20;50.10;;;;;;4983035;28;87790;-70
2023/03/23 09:46:00;;;;;;;6.40;1.63;;;20.30;51.30;;;;;;4971263;28;87789;-70
2023/03/23 09:48:36;;;;;;;3.33;1.60;;;20.50;52.00;;;;;;4974625;28;87609;-70
2023/03/23 09:51:22;;;;;;;8.18;1.60;;;20.50;49.80;;;;;;4977676;28;87333;-70
2023/03/23 09:54:26;;;;;;;4.60;1.60;;;20.80;49.70;;;;;;4974096;28;87568;-70
2023/03/23 09:56:52;;;;;;;6.40;2.05;;;20.90;49.50;;;;;;4975736;28;86895;-70
2023/03/23 09:59:24;;;;;;;4.15;1.60;;;21.00;49.00;;;;;;4968570;28;88281;-71
2023/03/23 10:02:07;;;;;;;5.60;1.88;;;20.90;49.50;;;;;;4976368;28;87917;-70
2023/03/23 10:04:39;;;;;;;9.43;1.42;;;20.90;47.20;;;;;;4968487;28;89309;-70
2023/03/23 10:07:18;;;;;;;5.53;1.30;;;20.90;48.30;;;;;;4988082;28;87162;-70
2023/03/23 10:09:47;;;;;;;5.18;1.17;;;21.00;48.30;;;;;;4978164;28;88176;-70
2023/03/23 10:13:09;;;;;;;6.65;1.52;;;20.90;48.60;;;;;;4976227;28;87581;-70
2023/03/23 10:15:38;;;;;;;6.20;1.20;;;20.90;48.10;;;;;;4982190;28;87189;-71
2023/03/23 10:18:12;;;;;;;3.33;1.10;;;21.10;46.50;;;;;;4972325;28;87561;-71
2023/03/23 10:20:53;;;;;;;3.25;0.88;;;21.30;47.40;;;;;;4969986;28;88470;-70
2023/03/23 10:23:18;;;;;;;4.07;1.30;;;21.50;45.30;;;;;;4975769;28;87957;-70
2023/03/23 10:26:16;;;;;;;3.97;1.70;;;21.80;45.00;;;;;;4965270;28;89134;-71
2023/03/23 10:28:49;;;;;;;4.85;1.85;;;22.30;44.30;;;;;;4961069;28;87592;-70
2023/03/23 10:31:28;;;;;;;8.07;1.60;;;22.50;44.20;;;;;;4986576;28;88994;-71
2023/03/23 10:33:58;;;;;;;5.18;1.27;;;22.70;43.10;;;;;;4990303;28;88765;-70
2023/03/23 10:36:37;;;;;;;4.18;1.70;;;22.90;42.70;;;;;;4987807;28;87310;-69
2023/03/23 10:39:07;;;;;;;6.47;1.77;;;23.00;42.10;;;;;;4998057;28;87532;-70
2023/03/23 10:41:33;;;;;;;4.40;1.80;;;22.90;43.00;;;;;;4982615;28;88727;-72
2023/03/23 10:44:19;;;;;;;7.22;2.10;;;22.90;43.40;;;;;;4990729;28;88370;-71
2023/03/23 10:47:04;;;;;;;5.78;2.15;;;22.80;43.70;;;;;;4975766;28;87548;-70
2023/03/23 10:49:33;;;;;;;7.05;2.22;;;22.90;44.50;;;;;;4982201;28;88069;-71
2023/03/23 10:52:26;;;;;;;10.02;2.03;;;22.90;44.10;;;;;;4977154;28;88652;-70
2023/03/23 10:55:05;;;;;;;5.13;1.77;;;23.00;43.00;;;;;;4976788;28;88967;-70
2023/03/23 10:57:33;;;;;;;6.45;1.80;;;23.10;42.60;;;;;;4994565;28;88121;-71
2023/03/23 11:00:06;;;;;;;4.55;2.53;;;23.10;43.50;;;;;;4976879;28;87394;-70
2023/03/23 11:02:36;;;;;;;6.75;1.88;;;23.20;42.80;;;;;;4974356;28;88021;-70
2023/03/23 11:05:27;;;;;;;4.95;1.98;;;23.40;43.50;;;;;;4978611;28;87647;-70
2023/03/23 11:07:58;;;;;;;8.48;2.10;;;23.60;42.20;;;;;;4986699;28;87575;-70
2023/03/23 11:10:27;;;;;;;5.07;1.90;;;23.80;41.90;;;;;;4973287;28;88135;-70
2023/03/23 11:12:57;;;;;;;4.43;1.90;;;24.00;42.50;;;;;;4979936;28;88931;-71
2023/03/23 11:15:30;;;;;;;6.57;2.13;;;24.30;43.00;;;;;;4996993;28;88322;-71
2023/03/23 11:18:04;;;;;;;4.80;2.15;;;24.60;41.60;;;;;;4984462;28;86992;-71
2023/03/23 11:20:41;;;;;;;5.82;1.90;;;24.80;41.00;;;;;;4976300;28;87675;-71
2023/03/23 11:23:28;;;;;;;3.30;1.90;;;24.80;41.20;;;;;;4976485;28;88790;-70
2023/03/23 11:26:12;;;;;;;4.68;2.25;;;25.10;41.10;;;;;;4972687;28;87391;-70
2023/03/23 11:28:47;;;;;;;5.93;1.83;;;25.40;39.40;;;;;;4971868;28;87426;-72
2023/03/23 11:31:12;;;;;;;6.55;2.25;;;25.10;40.20;;;;;;4975904;28;87371;-70
2023/03/23 11:33:57;;;;;;;5.35;2.05;;;25.20;39.60;;;;;;4981111;28;89798;-70
2023/03/23 11:36:31;;;;;;;5.32;1.90;;;25.10;39.20;;;;;;4967714;28;87957;-71
2023/03/23 11:38:57;;;;;;;9.68;2.17;;;25.00;39.90;;;;;;4956994;28;87561;-70
2023/03/23 11:41:24;;;;;;;5.40;2.10;;;25.10;40.30;;;;;;4968704;28;87052;-70
2023/03/23 11:43:52;;;;;;;5.80;2.05;;;24.90;39.80;;;;;;4982051;28;88079;-69
2023/03/23 11:46:36;;;;;;;4.82;2.00;;;24.70;39.90;;;;;;4965366;28;87524;-70
2023/03/23 11:49:08;;;;;;;6.43;2.30;;;24.60;39.90;;;;;;4963979;28;89068;-71
2023/03/23 11:52:00;;;;;;;6.05;2.17;;;24.60;40.30;;;;;;4967500;28;87555;-71
2023/03/23 11:54:59;;;;;;;4.35;1.83;;;24.50;42.20;;;;;;4970478;28;88461;-69
2023/03/23 11:57:27;;;;;;;8.65;1.95;;;24.30;41.70;;;;;;4975375;28;87291;-70
2023/03/23 11:59:54;;;;;;;3.70;0.98;;;24.20;44.20;;;;;;4994832;28;87711;-72
2023/03/23 12:02:27;;;;;;;6.45;1.10;;;23.90;43.50;;;;;;4967075;28;88938;-70
2023/03/23 12:05:22;;;;;;;2.53;0.88;;;23.60;44.50;;;;;;4961564;28;87982;-71
2023/03/23 12:08:03;;;;;;;2.38;0.63;;;23.50;43.80;;;;;;4971744;28;87307;-70
2023/03/23 12:10:28;;;;;;;4.90;1.02;;;23.40;45.50;;;;;;4985227;28;87729;-71
2023/03/23 12:13:18;;;;;;;1.73;0.65;;;23.40;45.20;;;;;;4971892;28;87231;-72
2023/03/23 12:16:02;;;;;;;5.93;1.20;;;23.40;45.30;;;;;;4975171;28;88626;-70
2023/03/23 12:19:02;;;;;;;4.18;0.82;;;23.30;48.00;;;;;;4970401;28;89222;-70
2023/03/23 12:21:50;;;;;;;3.85;0.98;;;23.30;45.20;;;;;;4978102;28;87768;-71
2023/03/23 12:24:37;;;;;;;2.10;0.60;;;23.50;45.60;;;;;;4985124;28;87385;-72
2023/03/23 12:27:29;;;;;;;3.47;1.00;;;23.40;43.90;;;;;;4973086;28;88137;-72
2023/03/23 12:30:20;;;;;;;3.55;0.70;;;23.00;44.40;;;;;;4979582;28;87853;-70
2023/03/23 12:33:08;;;;;;;2.00;0.65;;;22.90;47.00;;;;;;4977825;28;87940;-70
2023/03/23 12:35:43;;;;;;;4.03;0.93;;;22.90;46.00;;;;;;4977314;28;86721;-70
2023/03/23 12:38:10;;;;;;;3.17;0.93;;;22.80;47.90;;;;;;4982107;28;88282;-71
2023/03/23 12:40:45;;;;;;;4.07;0.65;;;22.70;46.00;;;;;;4973635;28;87610;-70
2023/03/23 12:43:18;;;;;;;2.63;0.77;;;22.70;47.00;;;;;;4972631;28;88034;-71
2023/03/23 12:46:39;;;;;;;4.07;0.93;;;22.70;45.70;;;;;;4981336;28;87906;-70
2023/03/23 12:49:07;;;;;;;1.75;0.70;;;22.60;45.10;;;;;;4959523;28;87799;-70
2023/03/23 12:52:11;;;;;;;4.60;0.80;;;22.60;44.60;;;;;;4977800;28;87890;-71
2023/03/23 12:54:40;;;;;;;7.45;1.17;;;22.60;44.40;;;;;;4975489;28;87429;-71
2023/03/23 12:57:07;;;;;;;4.72;1.10;;;22.90;45.50;;;;;;4977948;28;87556;-70
2023/03/23 12:59:55;;;;;;;5.60;0.95;;;23.00;47.30;;;;;;4980018;28;87035;-71
2023/03/23 13:02:33;;;;;;;3.70;0.95;;;22.80;44.10;;;;;;4974718;28;88100;-71
2023/03/23 13:05:27;;;;;;;4.22;1.50;;;22.80;44.80;;;;;;4982198;28;87261;-70
2023/03/23 13:08:01;;;;;;;2.47;0.63;;;22.60;44.60;;;;;;4981021;28;87530;-70